HVN595 VHHH-VVTS
Flight info
| Callsign | HVN595 |
|---|---|
| Flight time | 1h 57m |
| Altitude | 40000 |
| Route | PECAN V12 EPDOS L642 EPKAL/K0904F400 L642 SOSPA W15 VETOM VETOM5A |
| Aircraft | B789/H-SDE1E2E3FGHIJ2J3J4J5M1RWXY/LB1D1 |
Departure
| Time | 2026-05-07 10:22 |
|---|---|
| Airport | Hong Kong International Airport (VHHH) |
Arrival
| Time | 2026-05-07 12:19 |
|---|---|
| Airport | Tan Son Nhat International Airport (VVTS) |
| Time | Latitude | Longitude | Altitude | Speed | Heading |
|---|---|---|---|---|---|
| 2026-05-07 09:47 | 22.31753 | 113.93275 | 42 ft | 0 kts | 71° |
| 2026-05-07 10:02 | 22.31749 | 113.93263 | 42 ft | 4 kts | 66° |
| 2026-05-07 10:02 | 22.31737 | 113.93237 | 42 ft | 4 kts | 54° |
| 2026-05-07 10:02 | 22.31719 | 113.93215 | 39 ft | 4 kts | 41° |
| 2026-05-07 10:03 | 22.31697 | 113.93198 | 40 ft | 4 kts | 24° |
| 2026-05-07 10:03 | 22.31672 | 113.93192 | 39 ft | 4 kts | 349° |
| 2026-05-07 10:03 | 22.31666 | 113.93193 | 42 ft | 0 kts | 340° |
| 2026-05-07 10:07 | 22.31669 | 113.93192 | 42 ft | 2 kts | 340° |
| 2026-05-07 10:07 | 22.31690 | 113.93184 | 42 ft | 5 kts | 342° |
| 2026-05-07 10:07 | 22.31738 | 113.93167 | 42 ft | 9 kts | 341° |
| 2026-05-07 10:08 | 22.31812 | 113.93139 | 42 ft | 13 kts | 341° |
| 2026-05-07 10:08 | 22.31872 | 113.93078 | 42 ft | 9 kts | 274° |
| 2026-05-07 10:08 | 22.31854 | 113.93011 | 42 ft | 11 kts | 251° |
| 2026-05-07 10:08 | 22.31823 | 113.92916 | 42 ft | 15 kts | 251° |
| 2026-05-07 10:09 | 22.31783 | 113.92792 | 42 ft | 19 kts | 251° |
| 2026-05-07 10:09 | 22.31735 | 113.92641 | 42 ft | 23 kts | 251° |
| 2026-05-07 10:09 | 22.31683 | 113.92481 | 41 ft | 20 kts | 250° |
| 2026-05-07 10:09 | 22.31635 | 113.92332 | 42 ft | 22 kts | 251° |
| 2026-05-07 10:10 | 22.31584 | 113.92176 | 42 ft | 21 kts | 251° |
| 2026-05-07 10:10 | 22.31534 | 113.92021 | 42 ft | 23 kts | 251° |
| 2026-05-07 10:10 | 22.31478 | 113.91889 | 42 ft | 14 kts | 217° |
| 2026-05-07 10:10 | 22.31435 | 113.91885 | 42 ft | 3 kts | 157° |
| 2026-05-07 10:11 | 22.31399 | 113.91903 | 42 ft | 9 kts | 156° |
| 2026-05-07 10:11 | 22.31324 | 113.91932 | 42 ft | 14 kts | 161° |
| 2026-05-07 10:11 | 22.31218 | 113.91972 | 42 ft | 18 kts | 161° |
| 2026-05-07 10:11 | 22.31103 | 113.92016 | 42 ft | 18 kts | 161° |
| 2026-05-07 10:12 | 22.30994 | 113.92057 | 42 ft | 17 kts | 161° |
| 2026-05-07 10:12 | 22.30875 | 113.92102 | 42 ft | 16 kts | 160° |
| 2026-05-07 10:12 | 22.30757 | 113.92146 | 42 ft | 20 kts | 161° |
| 2026-05-07 10:12 | 22.30667 | 113.92159 | 43 ft | 6 kts | 209° |
| 2026-05-07 10:13 | 22.30656 | 113.92141 | 43 ft | 4 kts | 245° |
| 2026-05-07 10:13 | 22.30642 | 113.92095 | 43 ft | 10 kts | 251° |
| 2026-05-07 10:13 | 22.30613 | 113.92004 | 43 ft | 16 kts | 250° |
| 2026-05-07 10:13 | 22.30570 | 113.91872 | 42 ft | 22 kts | 250° |
| 2026-05-07 10:14 | 22.30516 | 113.91705 | 41 ft | 23 kts | 252° |
| 2026-05-07 10:14 | 22.30467 | 113.91551 | 42 ft | 23 kts | 251° |
| 2026-05-07 10:14 | 22.30417 | 113.91397 | 42 ft | 22 kts | 251° |
| 2026-05-07 10:14 | 22.30364 | 113.91232 | 42 ft | 24 kts | 251° |
| 2026-05-07 10:15 | 22.30313 | 113.91073 | 42 ft | 24 kts | 251° |
| 2026-05-07 10:15 | 22.30261 | 113.90914 | 42 ft | 22 kts | 251° |
| 2026-05-07 10:15 | 22.30207 | 113.90747 | 42 ft | 25 kts | 251° |
| 2026-05-07 10:15 | 22.30153 | 113.90580 | 41 ft | 23 kts | 250° |
| 2026-05-07 10:16 | 22.30098 | 113.90408 | 42 ft | 25 kts | 250° |
| 2026-05-07 10:16 | 22.30047 | 113.90250 | 42 ft | 17 kts | 251° |
| 2026-05-07 10:16 | 22.30003 | 113.90116 | 42 ft | 20 kts | 251° |
| 2026-05-07 10:16 | 22.29954 | 113.89964 | 42 ft | 23 kts | 251° |
| 2026-05-07 10:17 | 22.29908 | 113.89822 | 42 ft | 16 kts | 250° |
| 2026-05-07 10:17 | 22.29848 | 113.89743 | 42 ft | 13 kts | 198° |
| 2026-05-07 10:17 | 22.29761 | 113.89761 | 42 ft | 14 kts | 161° |
| 2026-05-07 10:17 | 22.29665 | 113.89796 | 43 ft | 11 kts | 161° |
| 2026-05-07 10:18 | 22.29636 | 113.89816 | 43 ft | 2 kts | 121° |
| 2026-05-07 10:18 | 22.29634 | 113.89831 | 43 ft | 3 kts | 91° |
| 2026-05-07 10:18 | 22.29642 | 113.89863 | 42 ft | 6 kts | 70° |
| 2026-05-07 10:18 | 22.29643 | 113.89868 | 42 ft | 0 kts | 70° |
| 2026-05-07 10:21 | 22.29645 | 113.89873 | 40 ft | 4 kts | 70° |
| 2026-05-07 10:21 | 22.29700 | 113.90044 | 42 ft | 59 kts | 70° |
| 2026-05-07 10:21 | 22.29929 | 113.90752 | 44 ft | 141 kts | 71° |
| 2026-05-07 10:21 | 22.30327 | 113.91910 | 576 ft | 167 kts | 63° |
| 2026-05-07 10:22 | 22.30743 | 113.93099 | 1676 ft | 171 kts | 74° |
| 2026-05-07 10:22 | 22.31077 | 113.94404 | 2519 ft | 191 kts | 77° |
| 2026-05-07 10:22 | 22.31473 | 113.95857 | 3260 ft | 210 kts | 73° |
| 2026-05-07 10:22 | 22.31987 | 113.97395 | 3912 ft | 230 kts | 69° |
| 2026-05-07 10:23 | 22.32592 | 113.98998 | 4915 ft | 232 kts | 69° |
| 2026-05-07 10:23 | 22.33141 | 114.00670 | 5819 ft | 239 kts | 71° |
| 2026-05-07 10:23 | 22.33674 | 114.02407 | 6816 ft | 244 kts | 73° |
| 2026-05-07 10:23 | 22.33795 | 114.04237 | 7850 ft | 248 kts | 98° |
| 2026-05-07 10:24 | 22.33266 | 114.06015 | 8824 ft | 251 kts | 123° |
| 2026-05-07 10:24 | 22.32150 | 114.07437 | 9814 ft | 253 kts | 146° |
| 2026-05-07 10:24 | 22.30551 | 114.08406 | 10374 ft | 275 kts | 166° |
| 2026-05-07 10:24 | 22.28679 | 114.08730 | 11332 ft | 273 kts | 183° |
| 2026-05-07 10:25 | 22.26713 | 114.08718 | 11975 ft | 295 kts | 184° |
| 2026-05-07 10:25 | 22.24559 | 114.08681 | 12458 ft | 322 kts | 184° |
| 2026-05-07 10:25 | 22.22218 | 114.08652 | 12891 ft | 349 kts | 183° |
| 2026-05-07 10:25 | 22.19696 | 114.08686 | 13246 ft | 376 kts | 175° |
| 2026-05-07 10:26 | 22.17190 | 114.09564 | 14119 ft | 386 kts | 153° |
| 2026-05-07 10:26 | 22.15034 | 114.11357 | 14983 ft | 396 kts | 133° |
| 2026-05-07 10:26 | 22.13476 | 114.13832 | 15832 ft | 404 kts | 120° |
| 2026-05-07 10:26 | 22.12627 | 114.15633 | 16371 ft | 408 kts | 116° |
| 2026-05-07 10:27 | 22.11036 | 114.19340 | 17445 ft | 416 kts | 117° |
| 2026-05-07 10:27 | 22.10149 | 114.21240 | 17982 ft | 419 kts | 119° |
| 2026-05-07 10:27 | 22.08761 | 114.24011 | 18672 ft | 423 kts | 121° |
| 2026-05-07 10:27 | 22.07037 | 114.26514 | 19309 ft | 424 kts | 137° |
| 2026-05-07 10:28 | 22.04992 | 114.28365 | 19899 ft | 425 kts | 146° |
| 2026-05-07 10:28 | 22.02539 | 114.30207 | 20504 ft | 428 kts | 154° |
| 2026-05-07 10:28 | 21.99799 | 114.31421 | 21164 ft | 427 kts | 168° |
| 2026-05-07 10:28 | 21.96943 | 114.31932 | 21792 ft | 426 kts | 181° |
| 2026-05-07 10:29 | 21.93977 | 114.31736 | 22413 ft | 425 kts | 194° |
| 2026-05-07 10:29 | 21.91187 | 114.30843 | 23012 ft | 424 kts | 207° |
| 2026-05-07 10:29 | 21.88624 | 114.29278 | 23582 ft | 423 kts | 219° |
| 2026-05-07 10:30 | 21.83957 | 114.25345 | 24517 ft | 429 kts | 221° |
| 2026-05-07 10:30 | 21.81616 | 114.23335 | 24995 ft | 433 kts | 221° |
| 2026-05-07 10:30 | 21.79248 | 114.21316 | 25468 ft | 436 kts | 220° |
| 2026-05-07 10:30 | 21.76873 | 114.19304 | 25936 ft | 440 kts | 220° |
| 2026-05-07 10:31 | 21.74459 | 114.17256 | 26390 ft | 443 kts | 220° |
| 2026-05-07 10:31 | 21.72032 | 114.15191 | 26827 ft | 447 kts | 220° |
| 2026-05-07 10:31 | 21.69581 | 114.13106 | 27271 ft | 450 kts | 220° |
| 2026-05-07 10:31 | 21.67106 | 114.11015 | 27696 ft | 454 kts | 219° |
| 2026-05-07 10:32 | 21.64387 | 114.09236 | 28094 ft | 461 kts | 207° |
| 2026-05-07 10:32 | 21.61365 | 114.08027 | 28488 ft | 468 kts | 197° |
| 2026-05-07 10:32 | 21.58190 | 114.07186 | 28831 ft | 472 kts | 196° |
| 2026-05-07 10:32 | 21.54990 | 114.06355 | 29250 ft | 475 kts | 196° |
| 2026-05-07 10:33 | 21.51803 | 114.05540 | 29618 ft | 478 kts | 196° |
| 2026-05-07 10:33 | 21.48565 | 114.04703 | 29974 ft | 481 kts | 196° |
| 2026-05-07 10:33 | 21.45295 | 114.03854 | 30294 ft | 484 kts | 195° |
| 2026-05-07 10:33 | 21.41943 | 114.03356 | 30562 ft | 489 kts | 186° |
| 2026-05-07 10:34 | 21.38520 | 114.03119 | 30817 ft | 493 kts | 186° |
| 2026-05-07 10:34 | 21.35082 | 114.02897 | 31111 ft | 495 kts | 186° |
| 2026-05-07 10:34 | 21.31636 | 114.02674 | 31372 ft | 498 kts | 186° |
| 2026-05-07 10:34 | 21.28170 | 114.02438 | 31642 ft | 500 kts | 186° |
| 2026-05-07 10:35 | 21.24682 | 114.02200 | 31883 ft | 503 kts | 186° |
| 2026-05-07 10:35 | 21.21218 | 114.01970 | 32134 ft | 505 kts | 186° |
| 2026-05-07 10:35 | 21.17700 | 114.01738 | 32373 ft | 508 kts | 186° |
| 2026-05-07 10:35 | 21.14163 | 114.01501 | 32610 ft | 510 kts | 186° |
| 2026-05-07 10:36 | 21.10614 | 114.01262 | 32832 ft | 512 kts | 186° |
| 2026-05-07 10:36 | 21.07049 | 114.01025 | 33138 ft | 512 kts | 186° |
| 2026-05-07 10:36 | 21.03494 | 114.00789 | 33469 ft | 512 kts | 186° |
| 2026-05-07 10:36 | 20.99934 | 114.00552 | 33802 ft | 512 kts | 186° |
| 2026-05-07 10:37 | 20.96378 | 114.00314 | 34097 ft | 512 kts | 186° |
| 2026-05-07 10:37 | 20.92842 | 113.99916 | 34377 ft | 508 kts | 195° |
| 2026-05-07 10:37 | 20.89430 | 113.99125 | 34618 ft | 507 kts | 195° |
| 2026-05-07 10:37 | 20.85984 | 113.98324 | 34942 ft | 506 kts | 195° |
| 2026-05-07 10:38 | 20.82541 | 113.97520 | 35250 ft | 506 kts | 195° |
| 2026-05-07 10:38 | 20.79105 | 113.96718 | 35558 ft | 505 kts | 195° |
| 2026-05-07 10:38 | 20.75673 | 113.95919 | 35862 ft | 505 kts | 195° |
| 2026-05-07 10:38 | 20.72247 | 113.95123 | 36163 ft | 504 kts | 195° |
| 2026-05-07 10:39 | 20.68819 | 113.94326 | 36462 ft | 503 kts | 195° |
| 2026-05-07 10:39 | 20.65398 | 113.93530 | 36753 ft | 502 kts | 195° |
| 2026-05-07 10:39 | 20.61977 | 113.92735 | 37049 ft | 502 kts | 195° |
| 2026-05-07 10:39 | 20.58566 | 113.91943 | 37343 ft | 501 kts | 195° |
| 2026-05-07 10:40 | 20.55159 | 113.91152 | 37628 ft | 500 kts | 195° |
| 2026-05-07 10:40 | 20.51757 | 113.90362 | 37905 ft | 500 kts | 195° |
| 2026-05-07 10:40 | 20.48355 | 113.89573 | 38185 ft | 499 kts | 195° |
| 2026-05-07 10:40 | 20.45007 | 113.88797 | 38460 ft | 499 kts | 195° |
| 2026-05-07 10:41 | 20.41617 | 113.88012 | 38698 ft | 498 kts | 195° |
| 2026-05-07 10:41 | 20.38227 | 113.87226 | 38928 ft | 498 kts | 195° |
| 2026-05-07 10:41 | 20.34842 | 113.86443 | 39125 ft | 498 kts | 195° |
| 2026-05-07 10:41 | 20.31458 | 113.85660 | 39345 ft | 497 kts | 195° |
| 2026-05-07 10:42 | 20.28074 | 113.84877 | 39560 ft | 496 kts | 195° |
| 2026-05-07 10:42 | 20.24692 | 113.84095 | 39766 ft | 496 kts | 195° |
| 2026-05-07 10:42 | 20.21319 | 113.83315 | 39894 ft | 498 kts | 195° |
| 2026-05-07 10:42 | 20.17922 | 113.82530 | 39889 ft | 500 kts | 195° |
| 2026-05-07 10:43 | 20.11156 | 113.80969 | 39883 ft | 495 kts | 195° |
| 2026-05-07 10:43 | 20.04414 | 113.79413 | 39887 ft | 496 kts | 195° |
| 2026-05-07 10:44 | 19.97682 | 113.77862 | 39888 ft | 497 kts | 195° |
| 2026-05-07 10:44 | 19.90914 | 113.76304 | 39886 ft | 496 kts | 195° |
| 2026-05-07 10:45 | 19.84149 | 113.74747 | 39887 ft | 496 kts | 195° |
| 2026-05-07 10:45 | 19.77430 | 113.73203 | 39885 ft | 496 kts | 195° |
| 2026-05-07 10:46 | 19.70713 | 113.71660 | 39886 ft | 496 kts | 195° |
| 2026-05-07 10:46 | 19.63912 | 113.70100 | 39885 ft | 496 kts | 195° |
| 2026-05-07 10:47 | 19.57188 | 113.68558 | 39885 ft | 497 kts | 195° |
| 2026-05-07 10:47 | 19.50433 | 113.67012 | 39886 ft | 496 kts | 195° |
| 2026-05-07 10:48 | 19.43679 | 113.65465 | 39881 ft | 496 kts | 195° |
| 2026-05-07 10:48 | 19.36936 | 113.63924 | 39885 ft | 495 kts | 194° |
| 2026-05-07 10:49 | 19.30251 | 113.62396 | 39882 ft | 494 kts | 194° |
| 2026-05-07 10:49 | 19.23522 | 113.60860 | 39882 ft | 494 kts | 194° |
| 2026-05-07 10:50 | 19.16768 | 113.59319 | 39880 ft | 496 kts | 194° |
| 2026-05-07 10:50 | 19.10003 | 113.57778 | 39880 ft | 496 kts | 194° |
| 2026-05-07 10:51 | 19.03286 | 113.56248 | 39880 ft | 497 kts | 194° |
| 2026-05-07 10:51 | 18.96480 | 113.54996 | 39877 ft | 498 kts | 189° |
| 2026-05-07 10:52 | 18.89591 | 113.54011 | 39884 ft | 498 kts | 190° |
| 2026-05-07 10:52 | 18.82718 | 113.53027 | 39880 ft | 498 kts | 189° |
| 2026-05-07 10:53 | 18.75896 | 113.52053 | 39879 ft | 498 kts | 189° |
| 2026-05-07 10:53 | 18.69015 | 113.51070 | 39872 ft | 498 kts | 189° |
| 2026-05-07 10:54 | 18.62153 | 113.50092 | 39875 ft | 498 kts | 189° |
| 2026-05-07 10:54 | 18.55453 | 113.48418 | 39904 ft | 493 kts | 207° |
| 2026-05-07 10:55 | 18.52467 | 113.46674 | 39913 ft | 490 kts | 218° |
| 2026-05-07 10:55 | 18.49737 | 113.44600 | 39888 ft | 490 kts | 218° |
| 2026-05-07 10:55 | 18.44237 | 113.40343 | 39889 ft | 490 kts | 218° |
| 2026-05-07 10:56 | 18.38726 | 113.36100 | 39888 ft | 490 kts | 218° |
| 2026-05-07 10:56 | 18.33215 | 113.31854 | 39889 ft | 490 kts | 218° |
| 2026-05-07 10:57 | 18.27734 | 113.27635 | 39894 ft | 492 kts | 218° |
| 2026-05-07 10:57 | 18.22202 | 113.23383 | 39891 ft | 492 kts | 218° |
| 2026-05-07 10:58 | 18.16674 | 113.19135 | 39887 ft | 491 kts | 218° |
| 2026-05-07 10:58 | 18.11150 | 113.14894 | 39884 ft | 491 kts | 218° |
| 2026-05-07 10:59 | 18.05630 | 113.10660 | 39886 ft | 491 kts | 218° |
| 2026-05-07 10:59 | 18.00140 | 113.06452 | 39881 ft | 491 kts | 218° |
| 2026-05-07 11:00 | 17.94619 | 113.02223 | 39879 ft | 491 kts | 218° |
| 2026-05-07 11:00 | 17.89099 | 112.97999 | 39879 ft | 492 kts | 218° |
| 2026-05-07 11:01 | 17.83580 | 112.93763 | 39880 ft | 491 kts | 219° |
| 2026-05-07 11:01 | 17.78134 | 112.89425 | 39876 ft | 491 kts | 219° |
| 2026-05-07 11:02 | 17.72652 | 112.85142 | 39881 ft | 492 kts | 219° |
| 2026-05-07 11:02 | 17.67170 | 112.80824 | 39878 ft | 493 kts | 219° |
| 2026-05-07 11:03 | 17.61707 | 112.76541 | 39874 ft | 493 kts | 219° |
| 2026-05-07 11:03 | 17.56208 | 112.72227 | 39878 ft | 493 kts | 219° |
| 2026-05-07 11:04 | 17.50710 | 112.67918 | 39872 ft | 492 kts | 219° |
| 2026-05-07 11:04 | 17.45232 | 112.63629 | 39873 ft | 492 kts | 219° |
| 2026-05-07 11:05 | 17.39721 | 112.59317 | 39870 ft | 493 kts | 219° |
| 2026-05-07 11:05 | 17.34262 | 112.55049 | 39872 ft | 492 kts | 219° |
| 2026-05-07 11:06 | 17.28779 | 112.50765 | 39869 ft | 492 kts | 219° |
| 2026-05-07 11:06 | 17.23290 | 112.46480 | 39871 ft | 492 kts | 219° |
| 2026-05-07 11:07 | 17.17796 | 112.42194 | 39868 ft | 493 kts | 219° |
| 2026-05-07 11:07 | 17.12287 | 112.37900 | 39867 ft | 493 kts | 219° |
| 2026-05-07 11:08 | 17.06797 | 112.33624 | 39867 ft | 493 kts | 219° |
| 2026-05-07 11:08 | 17.01295 | 112.29342 | 39864 ft | 493 kts | 218° |
| 2026-05-07 11:09 | 16.95801 | 112.25127 | 39865 ft | 493 kts | 217° |
| 2026-05-07 11:09 | 16.90231 | 112.20935 | 39861 ft | 492 kts | 218° |
| 2026-05-07 11:10 | 16.84700 | 112.16721 | 39859 ft | 492 kts | 218° |
| 2026-05-07 11:10 | 16.79156 | 112.12534 | 39859 ft | 492 kts | 218° |
| 2026-05-07 11:11 | 16.73604 | 112.08324 | 39861 ft | 493 kts | 218° |
| 2026-05-07 11:11 | 16.68073 | 112.04145 | 39857 ft | 493 kts | 218° |
| 2026-05-07 11:12 | 16.62517 | 111.99943 | 39857 ft | 493 kts | 218° |
| 2026-05-07 11:12 | 16.57890 | 111.96449 | 39859 ft | 493 kts | 218° |
| 2026-05-07 11:13 | 16.51399 | 111.91550 | 39859 ft | 493 kts | 218° |
| 2026-05-07 11:13 | 16.45841 | 111.87359 | 39855 ft | 492 kts | 218° |
| 2026-05-07 11:14 | 16.41230 | 111.83884 | 39855 ft | 493 kts | 217° |
| 2026-05-07 11:14 | 16.35672 | 111.79698 | 39852 ft | 493 kts | 217° |
| 2026-05-07 11:15 | 16.29214 | 111.74837 | 39850 ft | 492 kts | 217° |
| 2026-05-07 11:15 | 16.24565 | 111.71341 | 39852 ft | 491 kts | 217° |
| 2026-05-07 11:16 | 16.18125 | 111.66502 | 39851 ft | 491 kts | 217° |
| 2026-05-07 11:16 | 16.13518 | 111.63041 | 39850 ft | 491 kts | 217° |
| 2026-05-07 11:17 | 16.07966 | 111.58875 | 39850 ft | 492 kts | 217° |
| 2026-05-07 11:17 | 16.02411 | 111.54709 | 39848 ft | 492 kts | 217° |
| 2026-05-07 11:18 | 15.96855 | 111.50545 | 39853 ft | 492 kts | 217° |
| 2026-05-07 11:18 | 15.91298 | 111.46383 | 39851 ft | 492 kts | 217° |
| 2026-05-07 11:19 | 15.85743 | 111.42226 | 39849 ft | 492 kts | 217° |
| 2026-05-07 11:19 | 15.80186 | 111.38070 | 39851 ft | 492 kts | 217° |
| 2026-05-07 11:20 | 15.74670 | 111.33947 | 39848 ft | 493 kts | 217° |
| 2026-05-07 11:20 | 15.69099 | 111.29787 | 39852 ft | 493 kts | 217° |
| 2026-05-07 11:21 | 15.63528 | 111.25629 | 39851 ft | 493 kts | 217° |
| 2026-05-07 11:21 | 15.57954 | 111.21472 | 39847 ft | 493 kts | 217° |
| 2026-05-07 11:22 | 15.52391 | 111.17325 | 39845 ft | 492 kts | 217° |
| 2026-05-07 11:22 | 15.46816 | 111.13174 | 39848 ft | 493 kts | 217° |
| 2026-05-07 11:23 | 15.41270 | 111.09046 | 39849 ft | 493 kts | 217° |
| 2026-05-07 11:23 | 15.35687 | 111.04893 | 39847 ft | 492 kts | 217° |
| 2026-05-07 11:24 | 15.30165 | 111.00694 | 39847 ft | 492 kts | 218° |
| 2026-05-07 11:24 | 15.24685 | 110.96522 | 39844 ft | 492 kts | 217° |
| 2026-05-07 11:25 | 15.19159 | 110.92334 | 39845 ft | 491 kts | 218° |
| 2026-05-07 11:25 | 15.13638 | 110.88138 | 39844 ft | 492 kts | 218° |
| 2026-05-07 11:26 | 15.08108 | 110.83948 | 39846 ft | 492 kts | 218° |
| 2026-05-07 11:26 | 15.02582 | 110.79757 | 39845 ft | 492 kts | 218° |
| 2026-05-07 11:27 | 14.97083 | 110.75594 | 39843 ft | 492 kts | 218° |
| 2026-05-07 11:27 | 14.91560 | 110.71413 | 39843 ft | 493 kts | 218° |
| 2026-05-07 11:28 | 14.86024 | 110.67226 | 39842 ft | 493 kts | 217° |
| 2026-05-07 11:28 | 14.80492 | 110.63044 | 39838 ft | 492 kts | 217° |
| 2026-05-07 11:29 | 14.74961 | 110.58866 | 39841 ft | 492 kts | 217° |
| 2026-05-07 11:29 | 14.69427 | 110.54688 | 39841 ft | 493 kts | 217° |
| 2026-05-07 11:30 | 14.63920 | 110.50533 | 39841 ft | 493 kts | 217° |
| 2026-05-07 11:30 | 14.58375 | 110.46351 | 39844 ft | 494 kts | 217° |
| 2026-05-07 11:31 | 14.52821 | 110.42166 | 39842 ft | 494 kts | 217° |
| 2026-05-07 11:31 | 14.47265 | 110.37983 | 39840 ft | 493 kts | 217° |
| 2026-05-07 11:32 | 14.38985 | 110.31753 | 39841 ft | 493 kts | 217° |
| 2026-05-07 11:33 | 14.33433 | 110.27579 | 39837 ft | 494 kts | 217° |
| 2026-05-07 11:33 | 14.27874 | 110.23401 | 39840 ft | 494 kts | 217° |
| 2026-05-07 11:34 | 14.22313 | 110.19226 | 39836 ft | 494 kts | 217° |
| 2026-05-07 11:34 | 14.16775 | 110.15070 | 39833 ft | 494 kts | 217° |
| 2026-05-07 11:35 | 14.11213 | 110.10898 | 39834 ft | 494 kts | 217° |
| 2026-05-07 11:35 | 14.05644 | 110.06725 | 39836 ft | 494 kts | 217° |
| 2026-05-07 11:36 | 14.00111 | 110.02580 | 39832 ft | 494 kts | 217° |
| 2026-05-07 11:36 | 13.94443 | 109.98573 | 39845 ft | 494 kts | 213° |
| 2026-05-07 11:37 | 13.88617 | 109.94817 | 39842 ft | 494 kts | 213° |
| 2026-05-07 11:37 | 13.82987 | 109.91194 | 39842 ft | 494 kts | 213° |
| 2026-05-07 11:38 | 13.77144 | 109.87438 | 39844 ft | 494 kts | 213° |
| 2026-05-07 11:38 | 13.71346 | 109.83710 | 39842 ft | 494 kts | 213° |
| 2026-05-07 11:39 | 13.65494 | 109.79952 | 39843 ft | 494 kts | 213° |
| 2026-05-07 11:39 | 13.59662 | 109.76208 | 39845 ft | 494 kts | 213° |
| 2026-05-07 11:40 | 13.53829 | 109.72466 | 39843 ft | 494 kts | 213° |
| 2026-05-07 11:40 | 13.47995 | 109.68725 | 39845 ft | 494 kts | 213° |
| 2026-05-07 11:41 | 13.42190 | 109.65005 | 39842 ft | 494 kts | 213° |
| 2026-05-07 11:41 | 13.36359 | 109.61270 | 39845 ft | 493 kts | 213° |
| 2026-05-07 11:42 | 13.30525 | 109.57536 | 39842 ft | 493 kts | 213° |
| 2026-05-07 11:42 | 13.24698 | 109.53808 | 39843 ft | 494 kts | 213° |
| 2026-05-07 11:43 | 13.18895 | 109.50098 | 39850 ft | 494 kts | 213° |
| 2026-05-07 11:43 | 13.13054 | 109.46366 | 39848 ft | 494 kts | 213° |
| 2026-05-07 11:44 | 13.07220 | 109.42640 | 39850 ft | 494 kts | 213° |
| 2026-05-07 11:44 | 13.01385 | 109.38916 | 39852 ft | 493 kts | 213° |
| 2026-05-07 11:45 | 12.95561 | 109.35201 | 39855 ft | 493 kts | 213° |
| 2026-05-07 11:45 | 12.89769 | 109.31508 | 39856 ft | 493 kts | 213° |
| 2026-05-07 11:46 | 12.83944 | 109.27796 | 39856 ft | 492 kts | 213° |
| 2026-05-07 11:46 | 12.78136 | 109.24097 | 39854 ft | 491 kts | 213° |
| 2026-05-07 11:47 | 12.72361 | 109.20421 | 39857 ft | 491 kts | 213° |
| 2026-05-07 11:47 | 12.66553 | 109.16726 | 39861 ft | 490 kts | 213° |
| 2026-05-07 11:48 | 12.60739 | 109.13032 | 39860 ft | 491 kts | 213° |
| 2026-05-07 11:48 | 12.54945 | 109.09355 | 39862 ft | 491 kts | 213° |
| 2026-05-07 11:49 | 12.49137 | 109.05669 | 39870 ft | 491 kts | 213° |
| 2026-05-07 11:49 | 12.43523 | 109.01742 | 39910 ft | 486 kts | 226° |
| 2026-05-07 11:50 | 12.39106 | 108.96544 | 39888 ft | 487 kts | 234° |
| 2026-05-07 11:50 | 12.34790 | 108.91215 | 39905 ft | 487 kts | 228° |
| 2026-05-07 11:51 | 12.30186 | 108.86139 | 39910 ft | 484 kts | 231° |
| 2026-05-07 11:51 | 12.25765 | 108.80913 | 39911 ft | 486 kts | 230° |
| 2026-05-07 11:52 | 12.21256 | 108.75807 | 39919 ft | 486 kts | 230° |
| 2026-05-07 11:52 | 12.16783 | 108.70619 | 39917 ft | 487 kts | 230° |
| 2026-05-07 11:53 | 12.12284 | 108.65474 | 39921 ft | 487 kts | 230° |
| 2026-05-07 11:53 | 12.07788 | 108.60299 | 39918 ft | 486 kts | 230° |
| 2026-05-07 11:54 | 12.03285 | 108.55135 | 39915 ft | 486 kts | 230° |
| 2026-05-07 11:54 | 11.98785 | 108.49972 | 39915 ft | 486 kts | 230° |
| 2026-05-07 11:55 | 11.94285 | 108.44813 | 39913 ft | 487 kts | 230° |
| 2026-05-07 11:55 | 11.89774 | 108.39644 | 39908 ft | 487 kts | 230° |
| 2026-05-07 11:56 | 11.85290 | 108.34508 | 39472 ft | 492 kts | 230° |
| 2026-05-07 11:56 | 11.83003 | 108.31890 | 38914 ft | 492 kts | 230° |
| 2026-05-07 11:56 | 11.80728 | 108.29287 | 38314 ft | 489 kts | 231° |
| 2026-05-07 11:56 | 11.78472 | 108.26705 | 37710 ft | 486 kts | 230° |
| 2026-05-07 11:57 | 11.76225 | 108.24133 | 37092 ft | 483 kts | 230° |
| 2026-05-07 11:57 | 11.73997 | 108.21586 | 36491 ft | 480 kts | 230° |
| 2026-05-07 11:57 | 11.71771 | 108.19042 | 35921 ft | 477 kts | 230° |
| 2026-05-07 11:57 | 11.69824 | 108.16816 | 35413 ft | 474 kts | 229° |
| 2026-05-07 11:58 | 11.67604 | 108.14279 | 34867 ft | 471 kts | 229° |
| 2026-05-07 11:58 | 11.65454 | 108.11822 | 34337 ft | 468 kts | 229° |
| 2026-05-07 11:58 | 11.63291 | 108.09353 | 33785 ft | 465 kts | 229° |
| 2026-05-07 11:58 | 11.61141 | 108.06898 | 33174 ft | 461 kts | 229° |
| 2026-05-07 11:59 | 11.59011 | 108.04467 | 32606 ft | 458 kts | 229° |
| 2026-05-07 11:59 | 11.56892 | 108.02047 | 32031 ft | 454 kts | 229° |
| 2026-05-07 11:59 | 11.54788 | 107.99647 | 31481 ft | 450 kts | 229° |
| 2026-05-07 11:59 | 11.52713 | 107.97280 | 30958 ft | 447 kts | 229° |
| 2026-05-07 12:00 | 11.50646 | 107.94923 | 30423 ft | 443 kts | 229° |
| 2026-05-07 12:00 | 11.48609 | 107.92600 | 29903 ft | 439 kts | 228° |
| 2026-05-07 12:00 | 11.46607 | 107.90319 | 29307 ft | 435 kts | 228° |
| 2026-05-07 12:00 | 11.44589 | 107.88018 | 28712 ft | 432 kts | 228° |
| 2026-05-07 12:01 | 11.42595 | 107.85746 | 28126 ft | 428 kts | 228° |
| 2026-05-07 12:01 | 11.40615 | 107.83490 | 27556 ft | 424 kts | 228° |
| 2026-05-07 12:01 | 11.38652 | 107.81256 | 26993 ft | 421 kts | 228° |
| 2026-05-07 12:01 | 11.36712 | 107.79046 | 26438 ft | 410 kts | 227° |
| 2026-05-07 12:02 | 11.35469 | 107.77630 | 26063 ft | 398 kts | 227° |
| 2026-05-07 12:02 | 11.33070 | 107.74900 | 25264 ft | 385 kts | 227° |
| 2026-05-07 12:02 | 11.31279 | 107.72863 | 24654 ft | 384 kts | 227° |
| 2026-05-07 12:02 | 11.29493 | 107.70832 | 24082 ft | 385 kts | 227° |
| 2026-05-07 12:03 | 11.27697 | 107.68789 | 23514 ft | 386 kts | 227° |
| 2026-05-07 12:03 | 11.25901 | 107.66745 | 22806 ft | 388 kts | 227° |
| 2026-05-07 12:03 | 11.24708 | 107.65389 | 22305 ft | 385 kts | 227° |
| 2026-05-07 12:03 | 11.22940 | 107.63378 | 21580 ft | 377 kts | 227° |
| 2026-05-07 12:04 | 11.21207 | 107.61408 | 20844 ft | 371 kts | 227° |
| 2026-05-07 12:04 | 11.18945 | 107.58838 | 19900 ft | 362 kts | 226° |
| 2026-05-07 12:04 | 11.17816 | 107.57555 | 19436 ft | 358 kts | 226° |
| 2026-05-07 12:04 | 11.16166 | 107.55681 | 18760 ft | 353 kts | 226° |
| 2026-05-07 12:05 | 11.14537 | 107.53830 | 18095 ft | 348 kts | 226° |
| 2026-05-07 12:05 | 11.12932 | 107.52009 | 17340 ft | 343 kts | 226° |
| 2026-05-07 12:05 | 11.11346 | 107.50208 | 16593 ft | 339 kts | 226° |
| 2026-05-07 12:05 | 11.09804 | 107.48458 | 15879 ft | 335 kts | 226° |
| 2026-05-07 12:06 | 11.08252 | 107.46696 | 15165 ft | 332 kts | 226° |
| 2026-05-07 12:06 | 11.06716 | 107.44954 | 14481 ft | 329 kts | 226° |
| 2026-05-07 12:06 | 11.05183 | 107.43215 | 13813 ft | 332 kts | 226° |
| 2026-05-07 12:06 | 11.03635 | 107.41459 | 13100 ft | 334 kts | 226° |
| 2026-05-07 12:07 | 11.02098 | 107.39695 | 12362 ft | 330 kts | 230° |
| 2026-05-07 12:07 | 11.01051 | 107.37659 | 11741 ft | 323 kts | 251° |
| 2026-05-07 12:07 | 11.00363 | 107.35501 | 11184 ft | 317 kts | 253° |
| 2026-05-07 12:07 | 10.99749 | 107.33356 | 10665 ft | 316 kts | 254° |
| 2026-05-07 12:08 | 10.99136 | 107.31208 | 10132 ft | 315 kts | 253° |
| 2026-05-07 12:08 | 10.98508 | 107.29098 | 9625 ft | 314 kts | 253° |
| 2026-05-07 12:08 | 10.97870 | 107.26976 | 9101 ft | 311 kts | 253° |
| 2026-05-07 12:08 | 10.97253 | 107.24893 | 8916 ft | 301 kts | 253° |
| 2026-05-07 12:09 | 10.96666 | 107.22907 | 8880 ft | 287 kts | 253° |
| 2026-05-07 12:09 | 10.96090 | 107.20962 | 8556 ft | 286 kts | 253° |
| 2026-05-07 12:09 | 10.95521 | 107.19044 | 8169 ft | 282 kts | 253° |
| 2026-05-07 12:09 | 10.94957 | 107.17149 | 7802 ft | 277 kts | 253° |
| 2026-05-07 12:10 | 10.94409 | 107.15302 | 7433 ft | 274 kts | 253° |
| 2026-05-07 12:10 | 10.93860 | 107.13451 | 7124 ft | 272 kts | 253° |
| 2026-05-07 12:10 | 10.93674 | 107.12828 | 7023 ft | 272 kts | 253° |
| 2026-05-07 12:10 | 10.93618 | 107.12638 | 6992 ft | 271 kts | 254° |
| 2026-05-07 12:11 | 10.93087 | 107.10846 | 6711 ft | 271 kts | 253° |
| 2026-05-07 12:11 | 10.92543 | 107.09015 | 6431 ft | 269 kts | 253° |
| 2026-05-07 12:11 | 10.92003 | 107.07204 | 6177 ft | 267 kts | 253° |
| 2026-05-07 12:11 | 10.91463 | 107.05385 | 5909 ft | 266 kts | 253° |
| 2026-05-07 12:12 | 10.90928 | 107.03582 | 5641 ft | 265 kts | 253° |
| 2026-05-07 12:12 | 10.90401 | 107.01813 | 5381 ft | 265 kts | 253° |
| 2026-05-07 12:12 | 10.89866 | 107.00013 | 5101 ft | 264 kts | 253° |
| 2026-05-07 12:12 | 10.89334 | 106.98224 | 4834 ft | 264 kts | 253° |
| 2026-05-07 12:13 | 10.88804 | 106.96442 | 4590 ft | 262 kts | 253° |
| 2026-05-07 12:13 | 10.88283 | 106.94693 | 4316 ft | 255 kts | 253° |
| 2026-05-07 12:13 | 10.87773 | 106.92980 | 4032 ft | 250 kts | 252° |
| 2026-05-07 12:13 | 10.87291 | 106.91358 | 3990 ft | 234 kts | 253° |
| 2026-05-07 12:14 | 10.87132 | 106.89787 | 3927 ft | 219 kts | 283° |
| 2026-05-07 12:14 | 10.87522 | 106.88350 | 4021 ft | 216 kts | 281° |
| 2026-05-07 12:14 | 10.87699 | 106.86733 | 4032 ft | 229 kts | 275° |
| 2026-05-07 12:14 | 10.87871 | 106.85193 | 3844 ft | 220 kts | 278° |
| 2026-05-07 12:15 | 10.88121 | 106.83656 | 3480 ft | 220 kts | 280° |
| 2026-05-07 12:15 | 10.88290 | 106.82107 | 3103 ft | 219 kts | 264° |
| 2026-05-07 12:15 | 10.87855 | 106.80658 | 2852 ft | 212 kts | 249° |
| 2026-05-07 12:15 | 10.87357 | 106.79258 | 2582 ft | 208 kts | 247° |
| 2026-05-07 12:16 | 10.86844 | 106.77896 | 2320 ft | 203 kts | 246° |
| 2026-05-07 12:16 | 10.86345 | 106.76571 | 2057 ft | 196 kts | 246° |
| 2026-05-07 12:16 | 10.85876 | 106.75317 | 1798 ft | 185 kts | 246° |
| 2026-05-07 12:16 | 10.85437 | 106.74157 | 1585 ft | 165 kts | 245° |
| 2026-05-07 12:17 | 10.85040 | 106.73106 | 1374 ft | 155 kts | 245° |
| 2026-05-07 12:17 | 10.84660 | 106.72099 | 1194 ft | 149 kts | 246° |
| 2026-05-07 12:17 | 10.84294 | 106.71111 | 995 ft | 149 kts | 245° |
| 2026-05-07 12:17 | 10.83915 | 106.70130 | 812 ft | 147 kts | 245° |
| 2026-05-07 12:18 | 10.83553 | 106.69150 | 646 ft | 149 kts | 247° |
| 2026-05-07 12:18 | 10.83195 | 106.68166 | 460 ft | 150 kts | 244° |
| 2026-05-07 12:18 | 10.82814 | 106.67196 | 238 ft | 143 kts | 244° |
| 2026-05-07 12:18 | 10.82473 | 106.66256 | 55 ft | 137 kts | 245° |
| 2026-05-07 12:19 | 10.82183 | 106.65514 | 46 ft | 86 kts | 248° |
| 2026-05-07 12:19 | 10.82039 | 106.65129 | 40 ft | 48 kts | 250° |
| 2026-05-07 12:19 | 10.81926 | 106.64828 | 42 ft | 37 kts | 249° |
| 2026-05-07 12:19 | 10.81840 | 106.64604 | 42 ft | 33 kts | 251° |
| 2026-05-07 12:20 | 10.81734 | 106.64413 | 41 ft | 31 kts | 231° |
| 2026-05-07 12:20 | 10.81572 | 106.64295 | 41 ft | 24 kts | 189° |
| 2026-05-07 12:20 | 10.81470 | 106.64319 | 42 ft | 12 kts | 158° |
| 2026-05-07 12:20 | 10.81392 | 106.64349 | 43 ft | 12 kts | 159° |
| 2026-05-07 12:21 | 10.81311 | 106.64381 | 42 ft | 13 kts | 159° |
| 2026-05-07 12:21 | 10.81245 | 106.64422 | 42 ft | 5 kts | 117° |
| 2026-05-07 12:21 | 10.81245 | 106.64428 | 42 ft | 0 kts | 95° |
| 2026-05-07 12:21 | 10.81245 | 106.64431 | 42 ft | 1 kts | 90° |
| 2026-05-07 12:22 | 10.81251 | 106.64460 | 43 ft | 7 kts | 71° |
| 2026-05-07 12:22 | 10.81276 | 106.64526 | 44 ft | 13 kts | 69° |
| 2026-05-07 12:22 | 10.81313 | 106.64622 | 46 ft | 15 kts | 69° |
| 2026-05-07 12:22 | 10.81352 | 106.64726 | 46 ft | 18 kts | 69° |
| 2026-05-07 12:23 | 10.81402 | 106.64855 | 48 ft | 21 kts | 69° |
| 2026-05-07 12:23 | 10.81451 | 106.64988 | 46 ft | 18 kts | 69° |
| 2026-05-07 12:23 | 10.81503 | 106.65124 | 43 ft | 23 kts | 69° |
| 2026-05-07 12:23 | 10.81564 | 106.65287 | 42 ft | 22 kts | 69° |
| 2026-05-07 12:24 | 10.81621 | 106.65439 | 40 ft | 20 kts | 69° |
| 2026-05-07 12:24 | 10.81673 | 106.65576 | 42 ft | 20 kts | 69° |
| 2026-05-07 12:24 | 10.81716 | 106.65690 | 41 ft | 16 kts | 69° |
| 2026-05-07 12:24 | 10.81701 | 106.65789 | 39 ft | 12 kts | 133° |
| 2026-05-07 12:25 | 10.81653 | 106.65803 | 41 ft | 5 kts | 182° |
| 2026-05-07 12:25 | 10.81644 | 106.65802 | 42 ft | 0 kts | 184° |
| 2026-05-07 12:25 | 10.81641 | 106.65802 | 42 ft | 2 kts | 184° |
| 2026-05-07 12:25 | 10.81587 | 106.65797 | 43 ft | 13 kts | 185° |
| 2026-05-07 12:26 | 10.81519 | 106.65795 | 43 ft | 7 kts | 166° |
| 2026-05-07 12:26 | 10.81498 | 106.65814 | 43 ft | 5 kts | 117° |
| 2026-05-07 12:26 | 10.81489 | 106.65864 | 43 ft | 3 kts | 94° |
| 2026-05-07 12:26 | 10.81488 | 106.65881 | 39 ft | 0 kts | 94° |